createdAt,value
2023-04-02T00:00:20.022Z,84.39
2023-04-02T00:03:12.737Z,84.26
2023-04-02T00:05:56.734Z,84.30
2023-04-02T00:08:39.076Z,84.30
2023-04-02T00:11:33.329Z,84.38
2023-04-02T00:14:17.978Z,84.55
2023-04-02T00:16:54.837Z,84.75
2023-04-02T00:19:45.075Z,84.87
2023-04-02T00:22:34.517Z,84.75
2023-04-02T00:25:16.133Z,85.08
2023-04-02T00:27:46.818Z,85.42
2023-04-02T00:30:17.789Z,85.59
2023-04-02T00:32:48.739Z,85.60
2023-04-02T00:35:28.529Z,85.74
2023-04-02T00:37:59.372Z,85.93
2023-04-02T00:40:35.987Z,86.13
2023-04-02T00:43:33.353Z,86.25
2023-04-02T00:46:16.623Z,86.18
2023-04-02T00:49:01.707Z,86.33
2023-04-02T00:51:41.922Z,86.38
2023-04-02T00:54:17.023Z,86.54
2023-04-02T00:56:56.139Z,86.38
2023-04-02T00:59:35.774Z,86.50
2023-04-02T01:02:15.320Z,86.44
2023-04-02T01:05:16.502Z,86.19
2023-04-02T01:08:35.541Z,86.27
2023-04-02T01:11:28.659Z,86.39
2023-04-02T01:14:45.621Z,86.45
2023-04-02T01:17:43.918Z,86.43
2023-04-02T01:21:22.002Z,86.27
2023-04-02T01:24:07.768Z,86.07
2023-04-02T01:26:51.837Z,86.02
2023-04-02T01:29:37.514Z,86.16
2023-04-02T01:32:16.568Z,86.05
2023-04-02T01:34:49.893Z,86.21
2023-04-02T01:37:57.485Z,85.99
2023-04-02T01:41:04.108Z,86.02
2023-04-02T01:43:41.949Z,86.21
2023-04-02T01:46:33.191Z,86.18
2023-04-02T01:49:17.154Z,86.28
2023-04-02T01:51:58.798Z,86.38
2023-04-02T01:54:40.103Z,86.39
2023-04-02T01:57:12.800Z,86.48
2023-04-02T01:59:46.523Z,86.54
2023-04-02T02:02:16.601Z,86.49
2023-04-02T02:04:49.768Z,86.38
2023-04-02T02:07:21.618Z,86.47
2023-04-02T02:09:54.450Z,86.63
2023-04-02T02:12:25.644Z,86.42
2023-04-02T02:15:00.831Z,86.21
2023-04-02T02:17:34.654Z,86.24
2023-04-02T02:20:11.935Z,86.25
2023-04-02T02:22:52.013Z,86.33
2023-04-02T02:25:32.022Z,86.28
2023-04-02T02:28:16.507Z,86.00
2023-04-02T02:30:57.057Z,86.07
2023-04-02T02:33:47.294Z,86.05
2023-04-02T02:37:03.438Z,85.60
2023-04-02T02:39:46.233Z,85.51
2023-04-02T02:42:36.635Z,85.36
2023-04-02T02:45:18.808Z,85.46
2023-04-02T02:47:52.681Z,85.39
2023-04-02T02:50:31.816Z,85.55
2023-04-02T02:53:28.492Z,85.30
2023-04-02T02:56:01.755Z,85.22
2023-04-02T02:58:36.590Z,84.74
2023-04-02T03:01:57.272Z,84.60
2023-04-02T03:04:31.409Z,84.63
2023-04-02T03:07:06.842Z,84.52
2023-04-02T03:10:43.346Z,84.52
2023-04-02T03:13:47.592Z,84.74
2023-04-02T03:16:37.543Z,84.53
2023-04-02T03:19:48.524Z,84.65
2023-04-02T03:22:56.794Z,84.56
2023-04-02T03:25:51.207Z,84.57
2023-04-02T03:28:29.281Z,84.50
2023-04-02T03:31:57.841Z,84.38
2023-04-02T03:34:33.556Z,84.16
2023-04-02T03:37:15.024Z,84.16
2023-04-02T03:40:04.644Z,84.12
2023-04-02T03:43:23.160Z,84.16
2023-04-02T03:46:16.813Z,84.17
2023-04-02T03:48:58.319Z,84.30
2023-04-02T03:51:29.192Z,84.35
2023-04-02T03:54:03.462Z,84.42
2023-04-02T03:56:42.534Z,84.36
2023-04-02T04:00:20.626Z,84.24
2023-04-02T04:03:08.586Z,84.35
2023-04-02T04:05:50.235Z,84.39
2023-04-02T04:08:28.140Z,84.33
2023-04-02T04:11:02.234Z,84.48
2023-04-02T04:14:15.004Z,84.42
2023-04-02T04:17:10.242Z,84.49
2023-04-02T04:20:20.350Z,84.60
2023-04-02T04:22:56.315Z,84.74
2023-04-02T04:25:34.151Z,84.76
2023-04-02T04:28:44.207Z,84.96
2023-04-02T04:31:41.569Z,84.96
2023-04-02T04:34:53.836Z,84.92
2023-04-02T04:37:43.165Z,85.09
2023-04-02T04:40:23.399Z,84.96
2023-04-02T04:42:59.438Z,85.08
2023-04-02T04:46:00.585Z,85.11
2023-04-02T04:49:01.669Z,84.96
2023-04-02T04:51:45.633Z,85.01
2023-04-02T04:54:16.413Z,84.89
2023-04-02T04:56:55.255Z,85.01
2023-04-02T05:00:00.405Z,85.09
2023-04-02T05:02:40.126Z,84.88
2023-04-02T05:05:29.829Z,84.83
2023-04-02T05:08:19.609Z,84.84
2023-04-02T05:10:58.364Z,84.92
2023-04-02T05:13:57.646Z,84.98
2023-04-02T05:16:51.813Z,85.20
2023-04-02T05:19:50.606Z,85.17
2023-04-02T05:22:57.348Z,85.28
2023-04-02T05:25:34.210Z,85.50
2023-04-02T05:29:12.203Z,85.45
2023-04-02T05:32:03.723Z,85.44
2023-04-02T05:34:40.804Z,85.75
2023-04-02T05:37:23.926Z,85.77
2023-04-02T05:39:58.531Z,85.63
2023-04-02T05:42:32.873Z,85.41
2023-04-02T05:45:29.383Z,85.42
2023-04-02T05:48:05.837Z,85.24
2023-04-02T05:50:50.434Z,85.12
2023-04-02T05:53:47.237Z,84.80
2023-04-02T05:56:49.488Z,84.89
2023-04-02T05:59:31.933Z,84.88
2023-04-02T06:02:25.303Z,84.55
2023-04-02T06:05:12.748Z,84.62
2023-04-02T06:07:47.157Z,83.98
2023-04-02T06:10:34.253Z,83.43
2023-04-02T06:13:08.827Z,82.67
2023-04-02T06:15:47.763Z,82.50
2023-04-02T06:18:36.838Z,82.79
2023-04-02T06:21:08.016Z,82.75
2023-04-02T06:23:55.654Z,82.96
2023-04-02T06:26:38.370Z,82.88
2023-04-02T06:29:40.071Z,83.10
2023-04-02T06:32:13.468Z,83.15
2023-04-02T06:34:46.217Z,83.29
2023-04-02T06:37:27.917Z,83.03
2023-04-02T06:40:18.467Z,82.99
2023-04-02T06:42:57.117Z,82.50
2023-04-02T06:45:46.570Z,82.59
2023-04-02T06:48:31.822Z,82.88
2023-04-02T06:51:14.292Z,83.16
2023-04-02T06:53:53.392Z,83.55
2023-04-02T06:56:31.833Z,83.81
2023-04-02T06:59:03.724Z,83.91
2023-04-02T07:01:49.115Z,83.87
2023-04-02T07:04:23.688Z,83.77
2023-04-02T07:07:05.595Z,83.61
2023-04-02T07:09:42.524Z,83.90
2023-04-02T07:12:16.383Z,84.30
2023-04-02T07:14:48.203Z,84.45
2023-04-02T07:17:18.865Z,84.33
2023-04-02T07:19:51.883Z,84.27
2023-04-02T07:22:24.021Z,83.80
2023-04-02T07:24:57.252Z,83.56
2023-04-02T07:27:26.717Z,83.66
2023-04-02T07:30:03.924Z,83.52
2023-04-02T07:32:36.220Z,83.39
2023-04-02T07:35:08.377Z,83.64
2023-04-02T07:37:39.624Z,83.84
2023-04-02T07:40:19.109Z,84.44
2023-04-02T07:42:48.853Z,85.27
2023-04-02T07:45:20.639Z,85.99
2023-04-02T07:47:50.346Z,86.70
2023-04-02T07:50:20.290Z,86.71
2023-04-02T07:52:51.952Z,86.80
2023-04-02T07:55:21.435Z,87.05
2023-04-02T07:57:57.339Z,87.02
2023-04-02T08:00:29.013Z,87.30
2023-04-02T08:02:59.882Z,87.66
2023-04-02T08:05:31.406Z,88.20
2023-04-02T08:08:01.683Z,88.60
2023-04-02T08:10:31.130Z,88.76
2023-04-02T08:13:00.506Z,89.11
2023-04-02T08:15:29.911Z,89.19
2023-04-02T08:17:59.525Z,89.26
2023-04-02T08:20:29.340Z,89.35
2023-04-02T08:22:58.737Z,89.45
2023-04-02T08:25:28.368Z,89.35
2023-04-02T08:27:58.346Z,89.52
2023-04-02T08:30:27.696Z,89.44
2023-04-02T08:32:57.222Z,89.05
2023-04-02T08:35:26.797Z,88.85
2023-04-02T08:37:57.426Z,88.98
2023-04-02T08:40:27.832Z,88.96
2023-04-02T08:44:04.270Z,88.76
2023-04-02T08:46:49.556Z,88.85
2023-04-02T08:49:32.237Z,88.80
2023-04-02T08:52:01.828Z,88.42
2023-04-02T08:54:43.805Z,88.37
2023-04-02T08:57:47.883Z,88.41
2023-04-02T09:00:41.004Z,88.32
2023-04-02T09:03:40.734Z,88.36
2023-04-02T09:06:16.793Z,88.01
2023-04-02T09:08:50.295Z,87.88
2023-04-02T09:11:54.061Z,87.92
2023-04-02T09:14:47.448Z,87.75
2023-04-02T09:17:25.299Z,87.51
2023-04-02T09:20:18.123Z,87.27
2023-04-02T09:22:51.467Z,87.53
2023-04-02T09:25:24.027Z,87.53
2023-04-02T09:27:56.371Z,87.45
2023-04-02T09:30:33.565Z,87.56
2023-04-02T09:33:09.306Z,87.61
2023-04-02T09:35:58.038Z,87.28
2023-04-02T09:38:31.763Z,87.50
2023-04-02T09:41:07.620Z,87.49
2023-04-02T09:43:39.555Z,87.43
2023-04-02T09:46:26.120Z,87.77
2023-04-02T09:49:01.235Z,87.76
2023-04-02T09:51:34.882Z,87.58
2023-04-02T09:54:04.162Z,87.45
2023-04-02T09:56:38.869Z,87.63
2023-04-02T09:59:23.030Z,87.92
2023-04-02T10:01:55.596Z,87.73
2023-04-02T10:04:45.485Z,87.65
2023-04-02T10:07:44.115Z,87.47
2023-04-02T10:10:40.726Z,87.08
2023-04-02T10:13:31.521Z,86.73
2023-04-02T10:16:39.889Z,86.45
2023-04-02T10:19:58.986Z,85.95
2023-04-02T10:22:29.402Z,85.91
2023-04-02T10:24:59.710Z,85.63
2023-04-02T10:28:12.109Z,85.62
2023-04-02T10:31:11.659Z,85.83
2023-04-02T10:33:53.422Z,85.45
2023-04-02T10:37:32.034Z,85.42
2023-04-02T10:40:48.615Z,85.31
2023-04-02T10:43:53.757Z,85.83
2023-04-02T10:47:10.401Z,85.65
2023-04-02T10:50:26.380Z,85.98
2023-04-02T10:53:23.905Z,85.45
2023-04-02T10:56:03.694Z,85.10
2023-04-02T10:58:40.383Z,85.15
2023-04-02T11:01:18.928Z,85.41
2023-04-02T11:03:58.027Z,85.58
2023-04-02T11:06:38.489Z,85.84
2023-04-02T11:09:18.790Z,86.09
2023-04-02T11:11:53.277Z,86.35
2023-04-02T11:14:31.983Z,86.24
2023-04-02T11:17:04.957Z,86.53
2023-04-02T11:19:36.611Z,86.92
2023-04-02T11:22:25.801Z,87.30
2023-04-02T11:24:57.384Z,87.52
2023-04-02T11:27:30.984Z,87.64
2023-04-02T11:30:26.481Z,87.87
2023-04-02T11:34:06.846Z,87.85
2023-04-02T11:36:54.488Z,88.44
2023-04-02T11:40:02.589Z,88.70
2023-04-02T11:42:38.314Z,88.94
2023-04-02T11:45:29.116Z,88.94
2023-04-02T11:48:27.229Z,88.52
2023-04-02T11:50:58.358Z,88.64
2023-04-02T11:53:38.297Z,88.77
2023-04-02T11:56:25.347Z,88.65
2023-04-02T11:59:28.157Z,88.75
2023-04-02T12:02:22.727Z,88.56
2023-04-02T12:05:16.604Z,88.51
2023-04-02T12:08:57.861Z,88.56
2023-04-02T12:11:56.161Z,88.53
2023-04-02T12:14:47.358Z,88.69
2023-04-02T12:17:29.088Z,88.78
2023-04-02T12:20:22.829Z,89.18
2023-04-02T12:22:57.338Z,89.00
2023-04-02T12:25:40.943Z,88.82
2023-04-02T12:28:10.900Z,88.47
2023-04-02T12:30:42.093Z,88.12
2023-04-02T12:33:21.087Z,87.76
2023-04-02T12:35:58.215Z,87.89
2023-04-02T12:38:30.399Z,88.04
2023-04-02T12:41:06.486Z,87.57
2023-04-02T12:43:38.133Z,87.62
2023-04-02T12:46:13.799Z,88.18
2023-04-02T12:48:43.512Z,88.22
2023-04-02T12:51:13.703Z,88.28
2023-04-02T12:53:50.733Z,87.82
2023-04-02T12:56:23.996Z,87.02
2023-04-02T12:59:02.462Z,87.76
2023-04-02T13:01:34.021Z,87.83
2023-04-02T13:04:12.782Z,87.85
2023-04-02T13:06:57.495Z,86.97
2023-04-02T13:09:45.392Z,85.37
2023-04-02T13:12:32.693Z,85.08
2023-04-02T13:15:31.919Z,85.50
2023-04-02T13:18:13.925Z,85.38
2023-04-02T13:20:54.912Z,85.24
2023-04-02T13:23:37.848Z,85.00
2023-04-02T13:26:26.775Z,83.91
2023-04-02T13:29:03.386Z,84.06
2023-04-02T13:31:36.428Z,84.20
2023-04-02T13:34:09.987Z,84.81
2023-04-02T13:36:40.548Z,84.45
2023-04-02T13:39:11.959Z,84.62
2023-04-02T13:41:59.710Z,83.60
2023-04-02T13:44:37.800Z,83.17
2023-04-02T13:47:33.465Z,82.32
2023-04-02T13:50:06.987Z,80.59
2023-04-02T13:52:59.540Z,79.71
2023-04-02T13:55:54.823Z,79.97
2023-04-02T13:58:36.665Z,80.52
2023-04-02T14:01:07.436Z,81.01
2023-04-02T14:03:41.490Z,81.28
2023-04-02T14:06:31.441Z,79.90
2023-04-02T14:09:40.366Z,78.92
2023-04-02T14:12:54.915Z,79.42
2023-04-02T14:16:07.476Z,77.07
2023-04-02T14:19:36.591Z,76.97
2023-04-02T14:22:37.057Z,76.53
2023-04-02T14:25:22.187Z,72.91
2023-04-02T14:28:14.697Z,71.42
2023-04-02T14:31:03.847Z,68.02
2023-04-02T14:33:52.476Z,65.96
2023-04-02T14:36:50.455Z,65.03
2023-04-02T14:40:14.978Z,64.63
2023-04-02T14:43:34.950Z,62.79
2023-04-02T14:46:32.608Z,62.83
2023-04-02T14:49:45.014Z,63.99
2023-04-02T14:52:21.963Z,63.71
2023-04-02T14:55:05.513Z,64.33
2023-04-02T14:57:52.155Z,64.82
2023-04-02T15:00:31.173Z,66.57
2023-04-02T15:03:34.008Z,67.96
2023-04-02T15:06:16.967Z,65.09
2023-04-02T15:09:09.738Z,66.47
2023-04-02T15:11:51.324Z,66.53
2023-04-02T15:14:46.105Z,66.29
2023-04-02T15:17:16.194Z,67.52
2023-04-02T15:19:47.669Z,67.79
2023-04-02T15:22:37.655Z,68.07
2023-04-02T15:25:24.132Z,69.09
2023-04-02T15:28:29.317Z,68.60
2023-04-02T15:31:03.890Z,69.21
2023-04-02T15:33:52.751Z,70.04
2023-04-02T15:36:49.009Z,70.44
2023-04-02T15:39:58.290Z,69.50
2023-04-02T15:42:44.579Z,70.33
2023-04-02T15:45:46.254Z,70.64
2023-04-02T15:48:58.980Z,70.50
2023-04-02T15:52:12.982Z,71.33
2023-04-02T15:54:59.990Z,71.13
2023-04-02T15:57:51.573Z,71.53
2023-04-02T16:00:22.621Z,72.21
2023-04-02T16:03:23.795Z,72.31
2023-04-02T16:06:20.914Z,72.67
2023-04-02T16:09:16.735Z,72.96
2023-04-02T16:11:46.199Z,73.01
2023-04-02T16:14:27.420Z,73.62
2023-04-02T16:17:17.699Z,73.27
2023-04-02T16:20:09.082Z,73.78
2023-04-02T16:22:53.317Z,74.27
2023-04-02T16:25:41.431Z,74.33
2023-04-02T16:29:10.594Z,74.69
2023-04-02T16:31:52.774Z,74.31
2023-04-02T16:35:18.681Z,74.34
2023-04-02T16:38:03.015Z,75.08
2023-04-02T16:40:42.240Z,75.19
2023-04-02T16:43:14.763Z,75.68
2023-04-02T16:45:56.284Z,75.70
2023-04-02T16:48:51.128Z,76.57
2023-04-02T16:51:39.709Z,76.78
2023-04-02T16:54:29.344Z,76.95
2023-04-02T16:57:39.310Z,77.09
2023-04-02T17:00:49.724Z,77.69
2023-04-02T17:03:53.895Z,77.89
2023-04-02T17:06:42.390Z,78.10
2023-04-02T17:09:19.824Z,78.39
2023-04-02T17:12:20.146Z,78.83
2023-04-02T17:15:03.247Z,79.06
2023-04-02T17:17:33.356Z,79.03
2023-04-02T17:20:10.589Z,79.57
2023-04-02T17:22:42.129Z,79.71
2023-04-02T17:25:22.065Z,79.82
2023-04-02T17:27:55.880Z,79.66
2023-04-02T17:30:38.638Z,80.01
2023-04-02T17:33:18.399Z,80.10
2023-04-02T17:36:00.603Z,80.36
2023-04-02T17:39:24.237Z,80.40
2023-04-02T17:42:17.008Z,80.70
2023-04-02T17:44:59.585Z,80.54
2023-04-02T17:48:12.950Z,80.56
2023-04-02T17:51:02.686Z,80.95
2023-04-02T17:53:52.467Z,80.96
2023-04-02T17:56:53.190Z,81.06
2023-04-02T17:59:37.494Z,80.95
2023-04-02T18:02:52.582Z,81.07
2023-04-02T18:05:34.263Z,81.65
2023-04-02T18:08:03.875Z,81.49
2023-04-02T18:10:46.733Z,81.40
2023-04-02T18:13:40.565Z,81.20
2023-04-02T18:16:55.317Z,81.11
2023-04-02T18:19:47.835Z,81.33
2023-04-02T18:22:57.065Z,81.73
2023-04-02T18:26:27.941Z,82.74
2023-04-02T18:29:37.416Z,82.13
2023-04-02T18:32:37.460Z,81.81
2023-04-02T18:35:32.657Z,81.71
2023-04-02T18:38:47.844Z,81.75
2023-04-02T18:42:03.386Z,81.80
2023-04-02T18:45:31.824Z,81.88
2023-04-02T18:48:19.561Z,82.26
2023-04-02T18:50:49.840Z,82.15
2023-04-02T18:53:29.736Z,82.14
2023-04-02T18:56:32.050Z,82.20
2023-04-02T18:59:12.317Z,82.16
2023-04-02T19:01:51.486Z,82.41
2023-04-02T19:05:14.975Z,82.68
2023-04-02T19:08:03.850Z,82.78
2023-04-02T19:11:29.808Z,82.73
2023-04-02T19:17:44.904Z,82.92
2023-04-02T19:20:39.122Z,82.72
2023-04-02T19:28:12.301Z,82.45
2023-04-02T19:31:59.878Z,82.20
2023-04-02T19:38:46.417Z,82.20
2023-04-02T19:54:00.210Z,79.42
2023-04-02T19:57:30.233Z,77.83
2023-04-02T20:01:02.427Z,77.40
2023-04-02T20:03:38.558Z,77.60
2023-04-02T20:06:25.768Z,77.78
2023-04-02T20:09:23.316Z,77.85
2023-04-02T20:13:30.045Z,77.37
2023-04-02T20:20:40.955Z,78.04
2023-04-02T20:24:58.782Z,78.37
2023-04-02T20:30:38.017Z,78.86
2023-04-02T20:34:11.227Z,79.65
2023-04-02T20:36:42.564Z,80.18
2023-04-02T20:39:19.920Z,80.50
2023-04-02T20:41:50.198Z,80.89
2023-04-02T20:44:30.777Z,81.24
2023-04-02T20:47:03.185Z,81.56
2023-04-02T20:49:36.652Z,81.81
2023-04-02T20:52:08.808Z,81.96
2023-04-02T20:54:41.821Z,82.10
2023-04-02T20:57:13.968Z,82.81
2023-04-02T20:59:46.607Z,82.77
2023-04-02T21:02:53.834Z,82.72
2023-04-02T21:05:23.883Z,82.69
2023-04-02T21:07:55.589Z,82.75
2023-04-02T21:10:28.584Z,82.66
2023-04-02T21:13:00.820Z,82.50
2023-04-02T21:15:31.295Z,82.38
2023-04-02T21:18:02.797Z,82.12
2023-04-02T21:20:52.133Z,82.13
2023-04-02T21:23:41.589Z,81.90
2023-04-02T21:30:52.721Z,82.78
2023-04-02T21:34:43.248Z,82.58
2023-04-02T21:37:15.069Z,82.93
2023-04-02T21:40:26.462Z,83.38
2023-04-02T21:43:24.340Z,83.79
2023-04-02T21:45:59.986Z,84.14
2023-04-02T21:48:34.396Z,84.30
2023-04-02T21:54:56.500Z,84.37
2023-04-02T21:57:48.182Z,84.59
2023-04-02T22:00:39.240Z,84.51
2023-04-02T22:03:21.498Z,84.70
2023-04-02T22:06:14.345Z,84.85
2023-04-02T22:09:07.600Z,84.70
2023-04-02T22:12:08.625Z,84.90
2023-04-02T22:14:39.785Z,85.34
2023-04-02T22:17:26.307Z,85.09
2023-04-02T22:19:56.660Z,84.92
2023-04-02T22:22:30.432Z,84.84
2023-04-02T22:25:03.222Z,84.99
2023-04-02T22:27:34.795Z,84.92
2023-04-02T22:30:11.607Z,85.05
2023-04-02T22:41:52.610Z,86.07
2023-04-02T22:44:43.286Z,86.19
2023-04-02T22:47:53.837Z,86.30
2023-04-02T22:50:38.173Z,86.20
2023-04-02T22:53:23.398Z,86.14
2023-04-02T22:56:14.192Z,86.13
2023-04-02T22:58:45.546Z,86.13
2023-04-02T23:01:23.665Z,86.22
2023-04-02T23:03:55.394Z,86.52
2023-04-02T23:06:26.649Z,86.34
2023-04-02T23:08:59.646Z,86.65
2023-04-02T23:11:29.974Z,86.98
2023-04-02T23:14:00.615Z,87.12
2023-04-02T23:16:31.680Z,87.17
2023-04-02T23:19:04.756Z,87.33
2023-04-02T23:21:35.278Z,87.46
2023-04-02T23:24:07.780Z,87.38
2023-04-02T23:26:41.589Z,87.41
2023-04-02T23:29:30.589Z,87.10
2023-04-02T23:32:06.351Z,87.61
2023-04-02T23:34:36.266Z,87.64
2023-04-02T23:37:09.241Z,87.42
2023-04-02T23:39:41.504Z,87.34
2023-04-02T23:42:12.581Z,87.13
2023-04-02T23:44:42.407Z,87.48
2023-04-02T23:47:12.038Z,87.47
2023-04-02T23:49:47.748Z,87.34
2023-04-02T23:52:17.532Z,88.11
2023-04-02T23:54:47.849Z,88.36
2023-04-02T23:57:18.449Z,88.04
2023-04-02T23:59:49.324Z,88.09
